Latest Weather Observations for Cape Byron

IDN60801

Issued at 6:32 pm EDT Tuesday 28 February 2017 (issued every 30 minutes, with the page automatically refreshed every 10 minutes)

About weather observations | Map of weather stations | Latest weather observations for NSW | Other Formats
Station Details ID: 058216 Name: CAPE BYRON AWS Lat: -28.64 Lon: 153.64 Height: 95.0 m
Data from the previous 72 hours. | See also: Recent months at Cape Byron
Date/Time
EDT
Temp
°C
App
Temp
°C
Dew
Point
°C
Rel
Hum
%
Delta-T
°C
Wind Press
QNH
hPa
Press
MSL
hPa
Rain since
9am
mm
Dir  Spd
km/h
Gust
km/h
Spd
kts
Gust
kts
28/06:30pm 21.1 20.7 20.1 94 0.6 SE 22 32 12 17 1017.3 1016.8 1.0
28/06:00pm 22.1 20.3 20.4 90 1.1 ENE 30 46 16 25 1017.1 1016.6 0.6
28/05:56pm 22.3 20.8 20.2 88 1.4 ENE 28 46 15 25 1017.1 1016.6 0.6
28/05:30pm 24.9 26.9 22.2 85 1.8 SE 15 20 8 11 1017.2 1016.7 0.6
28/05:00pm 24.3 25.0 21.2 83 2.0 SE 19 26 10 14 1017.2 1016.7 0.6
28/04:30pm 24.9 24.3 21.2 80 2.4 ESE 26 32 14 17 1017.3 1016.8 0.6
28/04:00pm 24.5 24.5 21.6 84 1.9 ESE 24 28 13 15 1017.2 1016.7 0.6
28/03:30pm 23.0 24.4 21.8 93 0.8 SSE 17 30 9 16 1017.1 1016.6 0.6
28/03:00pm 22.5 24.7 21.1 92 0.9 WSW 11 17 6 9 1017.3 1016.8 0.6
28/02:30pm 23.7 24.5 21.4 87 1.5 ESE 19 30 10 16 1017.1 1016.6 0.6
28/02:00pm 24.1 23.7 21.6 86 1.7 E 26 33 14 18 1017.0 1016.5 0.6
28/01:30pm 24.9 26.3 21.8 83 2.1 ESE 17 22 9 12 1017.6 1017.1 0.6
28/01:00pm 24.3 26.0 21.6 85 1.8 SE 15 19 8 10 1017.9 1017.4 0.6
28/12:30pm 23.5 25.7 21.9 91 1.1 S 13 17 7 9 1018.0 1017.5 0.6
28/12:00pm 23.1 25.8 22.1 94 0.7 SSW 11 15 6 8 1018.1 1017.6 0.6
28/11:30am 22.0 23.9 21.3 96 0.5 SSW 13 17 7 9 1018.3 1017.8 0.6
28/11:00am 21.2 23.3 21.0 99 0.1 S 11 17 6 9 1018.4 1017.9 0.6
28/10:30am 21.0 24.1 21.0 100 0.0 S 6 9 3 5 1018.6 1018.1 0.6
28/10:00am 20.3 20.6 20.3 100 0.0 WSW 19 24 10 13 1018.0 1017.5 0.6
28/09:30am 20.2 21.2 20.2 100 0.0 WSW 15 19 8 10 1017.7 1017.2 0.6
28/09:00am 20.4 22.2 20.4 100 0.0 ESE 11 20 6 11 1017.6 1017.1 40.6
28/08:45am 20.9 20.1 20.9 100 0.0 E 26 41 14 22 1017.5 1017.0 40.2
28/08:30am 21.1 18.2 20.9 99 0.1 E 37 44 20 24 1017.3 1016.8 36.8
28/08:00am 21.6 18.6 21.3 98 0.2 E 39 54 21 29 1016.8 1016.3 35.8
28/07:30am 21.4 20.4 21.2 99 0.1 E 28 41 15 22 1016.9 1016.4 35.8
28/07:00am 21.1 20.8 21.1 100 0.0 E 24 32 13 17 1016.6 1016.1 35.8
28/06:30am 21.1 20.4 21.1 100 0.0 E 26 33 14 18 1016.4 1015.9 35.8
28/06:00am 20.8 18.6 20.8 100 0.0 E 33 46 18 25 1016.4 1015.9 35.6
28/05:30am 20.9 18.8 20.9 100 0.0 ESE 33 41 18 22 1016.6 1016.1 34.8
28/05:00am 20.5 18.2 20.5 100 0.0 ESE 33 44 18 24 1015.9 1015.5 34.6
28/04:30am 20.7 15.9 20.5 99 0.1 E 46 56 25 30 1016.0 1015.6 34.2
28/04:15am 21.0 18.4 20.7 98 0.2 SE 35 56 19 30 1016.1 1015.7 34.0
28/04:13am 21.2 19.3 20.9 98 0.2 SE 32 52 17 28 1016.5 1016.0 33.8
28/04:00am 21.3 20.2 21.0 98 0.2 SSE 28 37 15 20 1016.6 1016.1 33.6
28/03:30am 20.6 18.9 20.6 100 0.0 SSE 30 41 16 22 1016.6 1016.1 33.6
28/03:00am 20.5 19.1 20.5 100 0.0 S 28 37 15 20 1017.5 1017.0 33.4
28/02:30am 20.4 18.2 20.4 100 0.0 SSW 32 39 17 21 1017.6 1017.1 33.2
28/02:00am 20.3 16.8 20.3 100 0.0 S 39 46 21 25 1017.9 1017.4 33.2
28/01:30am 19.7 17.0 19.7 100 0.0 S 33 41 18 22 1018.1 1017.6 33.2
28/01:00am 19.8 16.8 19.8 100 0.0 S 35 46 19 25 1018.5 1018.0 33.2
28/12:30am 19.0 16.9 19.0 100 0.0 S 28 43 15 23 1019.2 1018.7 32.8
28/12:00am 18.7 17.6 18.7 100 0.0 SW 22 30 12 16 1019.5 1019.0 32.4
 
Date/Time
EDT
Temp
°C
App
Temp
°C
Dew
Point
°C
Rel
Hum
%
Delta-T
°C
Wind Press
QNH
hPa
Press
MSL
hPa
Rain since
9am
mm
Dir  Spd
km/h
Gust
km/h
Spd
kts
Gust
kts
27/11:30pm 18.8 17.4 18.8 100 0.0 SW 24 30 13 16 1019.6 1019.1 29.2
27/11:00pm 19.0 19.0 19.0 100 0.0 SW 17 22 9 12 1020.0 1019.5 12.0
27/10:30pm 19.1 17.5 19.1 100 0.0 SW 26 35 14 19 1019.3 1018.8 7.2
27/10:00pm 19.3 17.7 19.3 100 0.0 SW 26 30 14 16 1019.1 1018.6 7.2
27/09:30pm 19.5 18.8 19.5 100 0.0 SW 22 28 12 15 1019.4 1018.9 7.2
27/09:00pm 20.9 20.5 20.2 96 0.4 S 22 28 12 15 1019.4 1018.9 7.2
27/08:30pm 20.9 21.3 20.6 98 0.2 SE 19 32 10 17 1019.4 1018.9 5.6
27/08:00pm 20.8 20.6 20.6 99 0.1 E 22 28 12 15 1019.2 1018.7 4.6
27/07:30pm 20.5 19.0 20.3 99 0.1 E 28 39 15 21 1018.5 1018.0 4.4
27/07:00pm 20.6 17.9 20.4 99 0.1 ESE 35 46 19 25 1018.2 1017.7 4.2
27/06:58pm 21.0 18.5 20.8 99 0.1 SE 35 46 19 25 1018.1 1017.6 4.2
27/06:30pm 20.3 17.3 19.8 97 0.3 SSE 35 48 19 26 1018.2 1017.7 4.0
27/06:19pm 21.0 19.9 20.2 95 0.5 SSW 26 48 14 26 1018.3 1017.8 1.8
27/06:00pm 21.4 21.7 20.7 96 0.5 SW 20 28 11 15 1018.2 1017.7 1.6
27/05:30pm 21.7 20.9 20.9 95 0.5 SW 26 33 14 18 1017.9 1017.4 1.6
27/05:00pm 21.7 20.8 21.5 99 0.1 SW 28 39 15 21 1017.7 1017.2 1.6
27/04:30pm 20.7 19.8 20.7 100 0.0 SW 26 33 14 18 1017.7 1017.2 1.6
27/04:00pm 20.2 19.5 20.2 100 0.0 SW 24 33 13 18 1018.0 1017.5 1.6
27/03:30pm 19.9 19.0 19.9 100 0.0 SW 24 32 13 17 1018.6 1018.1 1.6
27/03:00pm 20.3 19.6 20.3 100 0.0 SW 24 32 13 17 1018.6 1018.1 1.6
27/02:30pm 20.4 20.1 20.4 100 0.0 SW 22 28 12 15 1018.7 1018.2 1.2
27/02:00pm 20.3 19.6 20.3 100 0.0 SW 24 32 13 17 1019.0 1018.5 0.8
27/01:30pm 20.4 20.0 20.2 99 0.1 SW 22 30 12 16 1019.4 1018.9 0.4
27/01:00pm 20.6 20.7 20.4 99 0.1 SW 20 28 11 15 1019.6 1019.1 0.2
27/12:30pm 20.5 20.3 20.5 100 0.0 SW 22 28 12 15 1019.6 1019.1 0.2
27/12:00pm 20.3 20.0 20.3 100 0.0 SW 22 30 12 16 1019.9 1019.4 0.2
27/11:30am 20.2 19.8 20.2 100 0.0 SW 22 30 12 16 1019.9 1019.4 0.2
27/11:00am 20.1 19.7 20.1 100 0.0 SW 22 30 12 16 1019.8 1019.3 0.2
27/10:30am 20.0 19.5 20.0 100 0.0 SW 22 28 12 15 1019.9 1019.4 0.0
27/10:00am 19.6 18.9 19.6 100 0.0 SW 22 30 12 16 1019.7 1019.2 0.0
27/09:30am 19.4 19.2 19.4 100 0.0 SW 19 26 10 14 1019.6 1019.1 0.0
27/09:00am 19.3 19.8 19.3 100 0.0 SW 15 20 8 11 1019.4 1018.9 49.0
27/08:30am 18.9 18.3 18.9 100 0.0 SW 20 26 11 14 1019.1 1018.6 49.0
27/08:00am 18.6 18.4 18.6 100 0.0 SW 17 24 9 13 1018.9 1018.4 49.0
27/07:30am 18.4 16.8 18.4 100 0.0 WSW 24 33 13 18 1018.7 1018.2 49.0
27/07:00am 18.6 17.9 18.6 100 0.0 SW 20 24 11 13 1018.3 1017.8 49.0
27/06:30am 18.6 17.9 18.6 100 0.0 SW 20 26 11 14 1017.9 1017.4 49.0
27/06:00am 19.1 19.9 19.1 100 0.0 SW 13 17 7 9 1018.2 1017.7 49.0
27/05:30am 18.9 18.5 18.9 100 0.0 WSW 19 26 10 14 1018.0 1017.5 48.8
27/05:00am 18.8 17.4 18.8 100 0.0 WSW 24 33 13 18 1017.3 1016.8 43.4
27/04:30am 19.1 17.1 19.1 100 0.0 WSW 28 33 15 18 1017.1 1016.6 38.6
27/04:00am 19.2 17.6 19.2 100 0.0 SW 26 35 14 19 1017.0 1016.5 38.2
27/03:30am 20.0 19.5 20.0 100 0.0 S 22 28 12 15 1016.8 1016.3 38.2
27/03:00am 19.0 16.9 19.0 100 0.0 SSE 28 39 15 21 1017.4 1016.9 36.4
27/02:45am 18.8 14.9 18.8 100 0.0 SSE 37 54 20 29 1017.9 1017.4 33.2
27/02:42am 19.3 14.9 19.3 100 0.0 S 41 54 22 29 1017.8 1017.3 30.6
27/02:36am 18.9 14.7 18.9 100 0.0 SSW 39 57 21 31 1017.9 1017.4 27.6
27/02:31am 19.8 17.3 19.8 100 0.0 SW 32 57 17 31 1017.5 1017.0 24.8
27/02:30am 19.8 17.7 19.8 100 0.0 SW 30 44 16 24 1017.6 1017.1 23.8
27/02:00am 19.9 18.4 19.4 97 0.3 SW 26 37 14 20 1017.9 1017.4 11.2
27/01:30am 20.7 18.2 19.7 94 0.6 SW 32 39 17 21 1017.7 1017.2 1.8
27/01:00am 20.4 17.6 19.4 94 0.6 SW 33 43 18 23 1017.8 1017.3 1.8
27/12:30am 23.9 21.9 21.2 85 1.8 S 33 43 18 23 1018.2 1017.7 1.8
27/12:00am 23.2 22.0 20.9 87 1.5 SSE 28 33 15 18 1018.1 1017.6 1.8
 
Date/Time
EDT
Temp
°C
App
Temp
°C
Dew
Point
°C
Rel
Hum
%
Delta-T
°C
Wind Press
QNH
hPa
Press
MSL
hPa
Rain since
9am
mm
Dir  Spd
km/h
Gust
km/h
Spd
kts
Gust
kts
26/11:30pm 22.9 20.4 20.2 85 1.7 SE 33 46 18 25 1018.2 1017.7 1.8
26/11:15pm 23.2 20.0 20.3 84 1.9 SSE 37 50 20 27 1018.2 1017.7 1.8
26/11:00pm 23.5 19.0 20.2 82 2.1 S 44 54 24 29 1018.4 1017.9 1.8
26/10:30pm 23.2 19.2 20.9 87 1.5 S 43 56 23 30 1018.6 1018.1 1.8
26/10:16pm 22.8 20.9 22.0 95 0.5 S 35 48 19 26 1018.4 1017.9 1.8
26/10:00pm 20.8 18.6 20.3 97 0.3 SW 32 41 17 22 1018.6 1018.1 1.8
26/09:30pm 20.7 18.1 19.9 95 0.5 SSW 33 46 18 25 1018.0 1017.5 1.8
26/09:28pm 20.9 17.6 20.1 95 0.5 SSW 37 46 20 25 1018.0 1017.5 1.8
26/09:12pm 20.8 16.5 18.6 87 1.4 SE 39 56 21 30 1018.4 1017.9 0.2
26/09:08pm 21.2 15.4 18.4 84 1.8 ESE 46 59 25 32 1018.3 1017.8 0.0
26/09:04pm 22.5 17.1 19.3 82 2.0 SE 46 63 25 34 1017.9 1017.4 0.0
26/09:00pm 23.2 17.8 19.2 78 2.6 S 46 63 25 34 1018.1 1017.6 0.0
26/08:59pm 23.4 18.0 19.3 78 2.6 S 46 63 25 34 1018.1 1017.6 0.0
26/08:58pm 24.1 19.7 20.4 80 2.4 S 44 63 24 34 1018.1 1017.6 0.0
26/08:30pm 24.0 19.3 20.7 82 2.2 S 46 56 25 30 1018.0 1017.5 0.0
26/08:19pm 24.1 21.3 21.0 83 2.0 S 37 50 20 27 1017.8 1017.3 0.0
26/08:00pm 24.1 20.8 19.2 74 3.1 SSE 35 48 19 26 1017.7 1017.2 0.0
26/07:30pm 23.9 19.9 19.4 76 2.9 SSE 39 54 21 29 1017.2 1016.7 0.0
26/07:00pm 24.3 21.0 20.8 81 2.3 S 39 48 21 26 1017.2 1016.7 0.0
26/06:30pm 24.5 21.9 20.0 76 2.9 S 33 46 18 25 1017.0 1016.5 0.0
26/06:00pm 24.5 20.5 17.7 66 4.3 S 35 44 19 24 1017.0 1016.5 0.0
26/05:47pm 24.7 21.5 18.6 69 3.9 SSE 33 44 18 24 1017.0 1016.5 0.0
26/05:30pm 25.2 22.4 20.2 74 3.3 SSE 35 54 19 29 1016.6 1016.1 0.0
26/05:28pm 25.0 21.6 19.8 73 3.4 SSE 37 54 20 29 1016.6 1016.1 0.0
26/05:00pm 24.9 21.8 18.8 69 3.9 S 33 43 18 23 1016.7 1016.2 0.0
26/04:30pm 25.0 21.6 19.1 70 3.8 S 35 43 19 23 1016.5 1016.0 0.0
26/04:00pm 25.0 21.0 17.7 64 4.6 S 35 41 19 22 1016.5 1016.0 0.0
26/03:30pm 25.2 21.2 18.4 66 4.3 S 37 44 20 24 1016.7 1016.2 0.0
26/03:00pm 25.5 22.0 17.4 61 5.1 SSE 32 41 17 22 1016.8 1016.3 0.0
26/02:30pm 26.3 22.4 16.5 54 6.1 SSE 32 44 17 24 1016.8 1016.3 0.0
26/02:00pm 26.6 22.2 15.6 50 6.7 S 33 46 18 25 1017.2 1016.7 0.0
26/01:30pm 25.7 22.3 17.6 61 5.1 SSE 32 41 17 22 1017.5 1017.0 0.0
26/01:00pm 25.0 23.4 19.1 70 3.8 S 26 35 14 19 1017.6 1017.1 0.0
26/12:30pm 25.7 22.7 16.8 58 5.5 S 28 33 15 18 1017.7 1017.2 0.0
26/12:00pm 26.3 23.3 16.8 56 5.9 S 28 35 15 19 1017.9 1017.4 0.0
26/11:30am 25.7 21.8 15.4 53 6.3 S 30 35 16 19 1018.0 1017.5 0.0
26/11:00am 25.7 23.2 17.1 59 5.4 S 26 33 14 18 1018.0 1017.5 0.0
26/10:30am 25.1 21.5 16.3 58 5.4 S 30 35 16 19 1017.8 1017.3 0.0
26/10:00am 25.3 22.4 16.2 57 5.6 SSE 26 33 14 18 1017.8 1017.3 0.0
26/09:30am 24.0 24.1 19.9 78 2.7 SSW 19 24 10 13 1017.5 1017.0 0.0
26/09:00am 22.3 21.9 18.9 81 2.2 SW 19 24 10 13 1017.3 1016.8 0.0
26/08:30am 22.1 21.8 19.1 83 1.9 SW 19 24 10 13 1017.0 1016.5 0.0
26/08:00am 21.6 21.5 18.8 84 1.8 SW 17 22 9 12 1016.7 1016.2 0.0
26/07:30am 21.1 21.0 18.7 86 1.5 SW 17 20 9 11 1016.4 1015.9 0.0
26/07:00am 21.0 20.6 18.8 87 1.4 SW 19 24 10 13 1015.9 1015.5 0.0
26/06:30am 20.9 20.8 18.7 87 1.4 SW 17 24 9 13 1015.4 1014.9 0.0
26/06:00am 21.4 21.1 19.1 87 1.5 SSW 19 26 10 14 1015.3 1014.8 0.0
26/05:30am 21.4 21.0 19.0 86 1.5 SSW 19 22 10 12 1015.0 1014.5 0.0
26/05:00am 21.7 21.7 18.9 84 1.8 SW 17 24 9 13 1015.0 1014.5 0.0
26/04:30am 22.0 21.5 19.0 83 1.9 SW 20 30 11 16 1015.0 1014.5 0.0
26/04:00am 21.7 21.7 18.9 84 1.8 SW 17 24 9 13 1014.9 1014.4 0.0
26/03:30am 22.5 21.5 17.6 74 3.0 SSW 19 30 10 16 1015.0 1014.5 0.0
26/03:00am 23.8 21.8 18.2 71 3.5 S 26 37 14 20 1015.1 1014.6 0.0
26/02:30am 23.9 21.4 19.8 78 2.6 S 32 39 17 21 1015.3 1014.8 0.0
26/02:00am 24.0 21.3 19.3 75 3.0 S 32 39 17 21 1015.8 1015.4 0.0
26/01:30am 24.1 21.2 19.2 74 3.1 S 33 43 18 23 1016.1 1015.7 0.0
26/01:00am 24.1 20.6 18.7 72 3.4 S 35 43 19 23 1016.7 1016.2 0.0
26/12:30am 24.0 21.0 19.1 74 3.1 S 33 41 18 22 1017.0 1016.5 0.0
26/12:00am 24.1 20.9 19.4 75 3.0 S 35 44 19 24 1017.2 1016.7 0.0
 
Date/Time
EDT
Temp
°C
App
Temp
°C
Dew
Point
°C
Rel
Hum
%
Delta-T
°C
Wind Press
QNH
hPa
Press
MSL
hPa
Rain since
9am
mm
Dir  Spd
km/h
Gust
km/h
Spd
kts
Gust
kts
25/11:30pm 24.2 21.7 18.8 72 3.4 S 30 37 16 20 1017.2 1016.7 0.0
25/11:00pm 24.3 21.4 18.9 72 3.4 S 32 43 17 23 1017.3 1016.8 0.0
25/10:30pm 24.1 21.4 18.5 71 3.6 S 30 37 16 20 1017.5 1017.0 0.0
25/10:00pm 24.1 21.3 18.3 70 3.7 S 30 39 16 21 1017.5 1017.0 0.0
25/09:30pm 24.2 21.9 19.3 74 3.1 S 30 37 16 20 1017.0 1016.5 0.0
25/09:00pm 24.1 21.4 17.6 67 4.1 SSE 28 37 15 20 1016.9 1016.4 0.0
25/08:30pm 24.2 21.2 16.7 63 4.6 SSE 28 35 15 19 1016.7 1016.2 0.0
25/08:00pm 24.2 20.3 16.5 62 4.7 SSE 32 43 17 23 1016.6 1016.1 0.0
25/07:30pm 24.3 21.1 17.3 65 4.4 SSE 30 43 16 23 1016.3 1015.8 0.0
25/07:00pm 24.3 20.0 15.8 59 5.2 SSE 33 43 18 23 1015.7 1015.3 0.0

Other Formats:

Comma delimited format used in spreadsheet applications
http://www.bom.gov.au/fwo/IDN60801/IDN60801.94599.axf

JavaScript Object Notation format (JSON) in row-major order
http://www.bom.gov.au/fwo/IDN60801/IDN60801.94599.json